»·PEaware :: N921VN KFUL-KGCN

N921VN :: KFUL-KGCN

FLIGHT INFORMATION

Flight Status: Arrived
Operator: Privately registered:
United States
More flights under this callsign
Pilot: Kevin M. (7)
Aircraft: Unknown
(SF50)
More flights by this aircraft type
Origin: KFUL Fullerton Mun
United States
Destination: KGCN Grand Canyon Natl Park
United States
More flights between these airports :: More routes between these airports
Route:
File this flight plan on PilotEdge
Remarks: Dead reckoning the Alphabet challenge leg 6
Altitude:
(Current/Filed)
17,500ft
Speed:
(Current/Filed)
250kts
Departed: 30-Oct-19 10:03 AM
Arrived: 30-Oct-19 11:24 AM
Distance/Time
Traveled:
314nm/1:21
Distance/Time
To Go:
Arrived

Flight Plot

Page will automatically refresh every two minutes.


Map Options




Map Legend


Flown Route
Filed Route
Departure Airport
Arrival Airport
Navaid (VOR, NDB)
Fix

Horizontal Profiles

Position Reports

Time Latitude Longitude Heading Altitude Ground
Speed
30-Oct-19 09:50 33.871298 -117.978944 74 96ft 0kts
30-Oct-19 09:51 33.871298 -117.978944 74 96ft 0kts
30-Oct-19 09:52 33.871298 -117.978944 74 96ft 0kts
30-Oct-19 09:53 33.871298 -117.978944 74 96ft 0kts
30-Oct-19 09:54 33.871298 -117.978944 74 96ft 0kts
30-Oct-19 09:55 33.871298 -117.978944 74 96ft 0kts
30-Oct-19 09:56 33.871298 -117.978944 74 96ft 0kts
30-Oct-19 09:57 33.871298 -117.978944 74 96ft 0kts
30-Oct-19 09:58 33.871298 -117.978944 74 96ft 0kts
30-Oct-19 09:59 33.871617 -117.978894 347 96ft 0kts
30-Oct-19 10:00 33.871247 -117.981593 257 92ft 24kts
30-Oct-19 10:01 33.871122 -117.984470 74 90ft 8kts
30-Oct-19 10:02 33.872490 -117.954412 84 1645ft 131kts
30-Oct-19 10:03 33.879927 -117.900749 79 3532ft 206kts
30-Oct-19 10:04 33.891274 -117.824984 78 5076ft 246kts
30-Oct-19 10:05 33.903971 -117.741863 78 6576ft 256kts
30-Oct-19 10:06 33.917314 -117.657183 78 8064ft 258kts
30-Oct-19 10:07 33.930788 -117.572186 78 9548ft 259kts
30-Oct-19 10:08 33.943991 -117.486966 78 11032ft 258kts
30-Oct-19 10:09 33.943373 -117.402021 111 12459ft 263kts
30-Oct-19 10:10 33.912990 -117.319771 112 13459ft 272kts
30-Oct-19 10:11 33.882051 -117.236184 108 14446ft 274kts
30-Oct-19 10:12 33.856643 -117.149453 107 15437ft 274kts
30-Oct-19 10:13 33.831107 -117.063099 107 16424ft 274kts
30-Oct-19 10:14 33.804898 -116.977143 107 17407ft 274kts
30-Oct-19 10:15 33.777162 -116.888413 107 17680ft 295kts
30-Oct-19 10:16 33.747545 -116.794154 107 17709ft 305kts
30-Oct-19 10:17 33.725496 -116.696328 94 17710ft 304kts
30-Oct-19 10:18 33.714746 -116.595745 84 17686ft 302kts
30-Oct-19 10:19 33.722363 -116.496089 87 17702ft 303kts
30-Oct-19 10:20 33.720559 -116.394269 87 17697ft 303kts
30-Oct-19 10:21 33.708798 -116.293414 98 17682ft 307kts
30-Oct-19 10:22 33.691979 -116.192642 98 17668ft 307kts
30-Oct-19 10:23 33.678342 -116.090140 90 16783ft 327kts
30-Oct-19 10:24 33.673818 -115.977683 90 14775ft 341kts
30-Oct-19 10:25 33.670205 -115.865741 90 13657ft 320kts
30-Oct-19 10:26 33.666729 -115.762478 92 13663ft 305kts
30-Oct-19 10:28 33.657623 -115.661783 93 13662ft 302kts
30-Oct-19 10:29 33.648428 -115.561819 93 13662ft 301kts
30-Oct-19 10:30 33.639278 -115.462075 93 13662ft 301kts
30-Oct-19 10:31 33.630149 -115.362320 93 13666ft 301kts
30-Oct-19 10:32 33.621072 -115.262949 94 13676ft 301kts
30-Oct-19 10:33 33.611951 -115.162904 94 13681ft 301kts
30-Oct-19 10:34 33.625095 -115.066334 67 13681ft 297kts
30-Oct-19 10:35 33.654546 -114.973090 66 13681ft 300kts
30-Oct-19 10:36 33.684215 -114.878758 66 13681ft 302kts
30-Oct-19 10:37 33.713963 -114.784301 66 13681ft 302kts
30-Oct-19 10:38 33.743758 -114.689765 66 13681ft 303kts
30-Oct-19 10:39 33.788242 -114.605907 42 13679ft 297kts
30-Oct-19 10:40 33.850382 -114.540550 37 13681ft 296kts
30-Oct-19 10:41 33.913648 -114.477439 37 13680ft 296kts
30-Oct-19 10:42 33.977105 -114.414113 37 13691ft 296kts
30-Oct-19 10:43 34.040207 -114.351096 37 13705ft 296kts
30-Oct-19 10:44 34.115045 -114.322061 348 13705ft 290kts
30-Oct-19 10:45 34.194137 -114.342947 348 13719ft 291kts
30-Oct-19 10:46 34.273106 -114.364108 348 13718ft 291kts
30-Oct-19 10:47 34.352153 -114.385276 348 13719ft 291kts
30-Oct-19 10:47 34.417975 -114.402889 348 13719ft 291kts
30-Oct-19 10:49 34.510603 -114.426228 1 13709ft 292kts
30-Oct-19 10:50 34.572485 -114.364401 43 13718ft 297kts
30-Oct-19 10:50 34.620739 -114.304783 43 13720ft 297kts
30-Oct-19 10:51 34.678730 -114.233085 43 13717ft 297kts
30-Oct-19 10:53 34.746319 -114.149509 43 13717ft 297kts
30-Oct-19 10:53 34.794642 -114.089742 43 13717ft 297kts
30-Oct-19 10:54 34.865160 -114.046989 8 13717ft 291kts
30-Oct-19 10:55 34.945507 -114.033117 7 13716ft 290kts
30-Oct-19 10:56 35.024153 -114.017146 24 13719ft 286kts
30-Oct-19 10:57 35.095966 -113.976339 24 13714ft 284kts
30-Oct-19 10:58 35.167943 -113.935304 24 13720ft 284kts
30-Oct-19 10:59 35.239425 -113.894495 24 13720ft 284kts
30-Oct-19 11:00 35.310902 -113.853234 30 13716ft 285kts
30-Oct-19 11:01 35.360045 -113.775960 51 13719ft 288kts
30-Oct-19 11:02 35.394848 -113.686821 63 13718ft 292kts
30-Oct-19 11:03 35.427257 -113.595624 63 13727ft 291kts
30-Oct-19 11:04 35.459687 -113.504407 63 13727ft 291kts
30-Oct-19 11:05 35.492151 -113.413168 63 13727ft 291kts
30-Oct-19 11:06 35.526075 -113.323023 61 13727ft 291kts
30-Oct-19 11:07 35.561226 -113.233333 61 13714ft 291kts
30-Oct-19 11:08 35.596417 -113.143712 61 13692ft 291kts
30-Oct-19 11:09 35.629098 -113.058931 61 15130ft 263kts
30-Oct-19 11:10 35.658609 -112.978775 61 16607ft 253kts
30-Oct-19 11:11 35.686320 -112.899045 67 17668ft 267kts
30-Oct-19 11:12 35.700636 -112.803941 74 17687ft 291kts
30-Oct-19 11:13 35.722775 -112.707768 68 17689ft 293kts
30-Oct-19 11:14 35.746020 -112.611596 67 17689ft 294kts
30-Oct-19 11:15 35.769339 -112.515303 67 17688ft 294kts
30-Oct-19 11:16 35.792769 -112.418694 67 17688ft 294kts
30-Oct-19 11:17 35.813220 -112.325083 74 16429ft 254kts
30-Oct-19 11:18 35.843365 -112.259734 37 13285ft 203kts
30-Oct-19 11:19 35.885894 -112.221190 51 10577ft 200kts
30-Oct-19 11:20 35.919305 -112.181899 34 8273ft 111kts
30-Oct-19 11:21 35.938162 -112.161806 48 6749ft 81kts
30-Oct-19 11:22 35.952364 -112.146951 42 6575ft 54kts
30-Oct-19 11:23 35.961161 -112.137652 42 6610ft 26kts
30-Oct-19 11:24 35.961036 -112.135355 35 6616ft 0kts
30-Oct-19 11:25 35.961036 -112.135355 35 6616ft 0kts

Navigation Log

Ident Type
Flight plan parsing failed, navigation log unavailable